Time;durP1;ratioP1;P1;durP2;ratioP2;P2;SDS_P1;SDS_P2;PMS_P1;PMS_P2;Temp;Humidity;BMP_temperature;BMP_pressure;BME280_temperature;BME280_humidity;BME280_pressure;Samples;Min_cycle;Max_cycle;Signal;HPM_P1;HPM_P2
2021/05/10 00:01:16;;;;;;;2.10;1.25;;;13.60;99.90;;;13.14;75.39;100774.81;5026879;28;20457;-55
2021/05/10 00:03:42;;;;;;;2.47;1.50;;;13.60;99.90;;;13.10;75.50;100768.25;5027042;28;20303;-54
2021/05/10 00:06:08;;;;;;;5.15;1.17;;;13.60;99.90;;;13.05;76.09;100766.06;5026577;28;20118;-54
2021/05/10 00:08:34;;;;;;;6.07;1.50;;;13.60;99.90;;;13.01;76.50;100763.91;5028815;28;20048;-56
2021/05/10 00:11:03;;;;;;;4.45;1.63;;;13.60;99.90;;;13.05;76.14;100765.25;5027337;28;20037;-53
2021/05/10 00:13:29;;;;;;;5.88;2.05;;;13.60;99.90;;;13.06;75.79;100757.25;5027151;28;20029;-52
2021/05/10 00:15:55;;;;;;;5.38;1.67;;;13.60;99.90;;;13.07;75.44;100753.66;5026685;28;20105;-54
2021/05/10 00:18:24;;;;;;;7.80;1.90;;;13.60;99.90;;;13.05;75.45;100754.78;5027814;28;20497;-50
2021/05/10 00:20:50;;;;;;;6.63;2.20;;;13.60;99.90;;;13.03;75.26;100754.13;5023068;28;20046;-49
2021/05/10 00:23:20;;;;;;;4.25;2.28;;;13.60;99.90;;;13.04;75.13;100753.16;5027840;28;20392;-56
2021/05/10 00:25:46;;;;;;;6.95;2.50;;;13.50;99.90;;;13.00;75.28;100743.97;5026236;28;20040;-54
2021/05/10 00:28:15;;;;;;;3.78;2.53;;;13.50;99.90;;;12.96;75.76;100746.06;5026514;28;20061;-53
2021/05/10 00:30:41;;;;;;;4.25;1.85;;;13.50;99.90;;;12.90;75.55;100744.88;5026850;28;20121;-53
2021/05/10 00:33:13;;;;;;;3.03;1.60;;;13.40;99.90;;;12.82;76.27;100750.03;5026308;28;20034;-54
2021/05/10 00:35:39;;;;;;;3.75;1.77;;;13.40;99.90;;;12.77;76.25;100747.06;5026392;28;20048;-50
2021/05/10 00:38:04;;;;;;;2.60;1.13;;;13.30;99.90;;;12.67;77.41;100745.53;5026563;28;20041;-51
2021/05/10 00:40:33;;;;;;;4.75;1.40;;;13.20;99.90;;;12.53;78.00;100744.25;5027420;28;20132;-53
2021/05/10 00:43:00;;;;;;;7.55;2.28;;;13.20;99.90;;;12.52;78.24;100753.06;5027283;28;20047;-54
2021/05/10 00:45:29;;;;;;;5.38;2.28;;;13.10;99.90;;;12.65;77.77;100750.09;5026893;28;20026;-53
2021/05/10 00:47:59;;;;;;;11.90;2.85;;;13.20;99.90;;;12.76;76.81;100753.25;5025999;28;20433;-53
2021/05/10 00:50:28;;;;;;;7.43;2.90;;;13.20;99.90;;;12.83;76.40;100743.84;5027645;28;20029;-51
2021/05/10 00:52:54;;;;;;;7.05;2.78;;;13.30;99.90;;;12.79;76.65;100741.69;5025474;28;20057;-55
2021/05/10 00:55:21;;;;;;;4.15;2.08;;;13.30;99.90;;;12.72;76.66;100741.50;5027056;28;20554;-50
2021/05/10 00:58:03;;;;;;;6.80;3.20;;;13.30;99.90;;;12.67;77.30;100735.91;5026139;28;20091;-48
2021/05/10 01:00:38;;;;;;;9.77;2.60;;;13.20;99.90;;;12.65;77.27;100737.84;5027563;28;20032;-52
2021/05/10 01:03:04;;;;;;;6.68;2.78;;;13.20;99.90;;;12.70;76.81;100735.59;5018351;28;20407;-49
2021/05/10 01:05:30;;;;;;;6.15;3.30;;;13.20;99.90;;;12.73;76.80;100740.53;5026897;28;20461;-56
2021/05/10 01:07:56;;;;;;;4.03;2.53;;;13.30;99.90;;;12.70;76.71;100743.44;5027245;28;20049;-54
2021/05/10 01:10:25;;;;;;;10.43;3.00;;;13.20;99.90;;;12.68;76.75;100737.53;5028061;28;20037;-53
2021/05/10 01:12:51;;;;;;;6.35;3.20;;;13.20;99.90;;;12.67;76.86;100742.91;5019966;28;20045;-53
2021/05/10 01:15:27;;;;;;;4.78;2.20;;;13.20;99.90;;;12.69;77.48;100739.19;5027484;28;20523;-54
2021/05/10 01:17:59;;;;;;;9.77;2.70;;;13.20;99.90;;;12.70;77.03;100750.47;5026980;28;20049;-53
2021/05/10 01:20:25;;;;;;;11.68;2.92;;;13.20;99.90;;;12.65;76.51;100740.47;5009536;28;20401;-56
2021/05/10 01:23:20;;;;;;;6.45;3.58;;;13.20;99.90;;;12.62;77.97;100744.19;5025090;28;20074;-56
2021/05/10 01:25:47;;;;;;;6.35;2.97;;;13.20;99.90;;;12.62;77.22;100745.97;5021324;28;20579;-52
2021/05/10 01:28:13;;;;;;;7.40;2.40;;;13.20;99.90;;;12.63;77.53;100742.41;5027378;28;20512;-51
2021/05/10 01:30:44;;;;;;;7.28;2.65;;;13.10;99.90;;;12.62;77.47;100743.38;5026264;28;20104;-54
2021/05/10 01:33:11;;;;;;;4.47;2.28;;;13.10;99.90;;;12.66;77.32;100739.47;5023348;28;20065;-54
2021/05/10 01:35:50;;;;;;;4.18;1.88;;;13.10;99.90;;;12.71;78.17;100742.47;5005204;28;20033;-51
2021/05/10 01:38:17;;;;;;;7.28;2.25;;;13.20;99.90;;;12.71;77.09;100739.84;5017429;28;20044;-55
2021/05/10 01:40:46;;;;;;;4.55;2.13;;;13.20;99.90;;;12.73;77.19;100742.31;5025860;28;20409;-48
2021/05/10 01:43:15;;;;;;;4.97;2.08;;;13.20;99.90;;;12.69;77.19;100739.19;5025413;28;20540;-55
2021/05/10 01:45:41;;;;;;;6.90;2.38;;;13.20;99.90;;;12.65;77.28;100737.84;5025441;28;20034;-52
2021/05/10 01:48:15;;;;;;;12.75;2.60;;;13.20;99.90;;;12.61;78.10;100736.50;5026518;28;20033;-57
2021/05/10 01:50:47;;;;;;;8.68;3.00;;;13.10;99.90;;;12.59;77.90;100738.44;5026959;28;20530;-52
2021/05/10 01:53:25;;;;;;;7.55;2.50;;;13.10;99.90;;;12.55;78.19;100732.69;5026193;28;20061;-55
2021/05/10 01:55:51;;;;;;;4.40;2.05;;;13.10;99.90;;;12.50;77.85;100729.69;5023940;28;20120;-54
2021/05/10 01:58:17;;;;;;;4.05;2.70;;;13.00;99.90;;;12.47;77.81;100724.78;5025865;28;20124;-54
2021/05/10 02:00:47;;;;;;;6.22;2.65;;;13.00;99.90;;;12.42;78.08;100720.97;5027421;28;20365;-53
2021/05/10 02:03:21;;;;;;;5.95;2.65;;;13.00;99.90;;;12.40;77.81;100722.91;5030402;28;20034;-52
2021/05/10 02:05:50;;;;;;;7.35;3.35;;;12.90;99.90;;;12.35;77.91;100718.13;5028597;28;20077;-53
2021/05/10 02:08:23;;;;;;;5.70;2.95;;;12.90;99.90;;;12.35;78.27;100717.31;5030913;28;20047;-56
2021/05/10 02:10:52;;;;;;;5.32;2.60;;;12.90;99.90;;;12.33;77.79;100722.69;5029303;28;20473;-56
2021/05/10 02:13:21;;;;;;;7.93;2.95;;;12.80;99.90;;;12.33;78.25;100716.63;5030010;28;20083;-56
2021/05/10 02:15:51;;;;;;;5.72;3.10;;;12.80;99.90;;;12.30;78.22;100710.75;5028720;28;20463;-52
2021/05/10 02:18:23;;;;;;;8.23;2.70;;;12.80;99.90;;;12.27;78.27;100718.91;5029960;28;20041;-53
2021/05/10 02:20:50;;;;;;;6.00;2.70;;;12.80;99.90;;;12.23;78.49;100712.34;5030031;28;20137;-51
2021/05/10 02:23:22;;;;;;;6.15;3.00;;;12.80;99.90;;;12.20;78.54;100717.84;5028454;28;20033;-57
2021/05/10 02:25:58;;;;;;;9.50;3.58;;;12.70;99.90;;;12.14;78.76;100717.63;5028560;28;20044;-51
2021/05/10 02:28:29;;;;;;;12.63;2.85;;;12.70;99.90;;;12.09;79.21;100714.63;5029559;28;20045;-50
2021/05/10 02:30:58;;;;;;;8.10;2.97;;;12.60;99.90;;;12.13;79.21;100723.81;5002236;28;20029;-54
2021/05/10 02:33:28;;;;;;;7.75;3.15;;;12.60;99.90;;;12.14;79.67;100722.84;5029965;28;20048;-54
2021/05/10 02:35:56;;;;;;;8.85;3.67;;;12.70;99.90;;;12.12;79.16;100723.00;5028635;28;20029;-52
2021/05/10 02:38:22;;;;;;;7.32;2.63;;;12.60;99.90;;;12.10;79.28;100722.31;5030007;28;20119;-53
2021/05/10 02:40:49;;;;;;;5.07;2.50;;;12.60;99.90;;;12.09;79.37;100728.50;5027669;28;20381;-52
2021/05/10 02:43:17;;;;;;;4.38;1.83;;;12.60;99.90;;;12.10;79.72;100730.16;5030094;28;20469;-53
2021/05/10 02:45:44;;;;;;;7.57;2.47;;;12.60;99.90;;;12.10;79.79;100724.94;5027846;28;20037;-53
2021/05/10 02:48:11;;;;;;;8.60;2.85;;;12.60;99.90;;;12.13;79.46;100729.03;5029566;28;20041;-56
2021/05/10 02:50:37;;;;;;;4.90;2.03;;;12.60;99.90;;;12.13;79.45;100727.25;5029616;28;20060;-53
2021/05/10 02:53:03;;;;;;;7.53;2.65;;;12.60;99.90;;;12.17;79.39;100731.22;5029694;28;20077;-52
2021/05/10 02:55:29;;;;;;;8.95;3.65;;;12.70;99.90;;;12.20;78.93;100722.25;5028598;28;20034;-57
2021/05/10 02:57:55;;;;;;;9.88;3.55;;;12.70;99.90;;;12.23;78.77;100716.75;5028661;28;20163;-54
2021/05/10 03:00:30;;;;;;;5.65;2.97;;;12.70;99.90;;;12.24;78.83;100715.75;5029010;28;20029;-55
2021/05/10 03:02:56;;;;;;;7.20;3.78;;;12.80;99.90;;;12.22;78.67;100721.13;5029095;28;20045;-54
2021/05/10 03:05:25;;;;;;;9.82;3.53;;;12.80;99.90;;;12.21;78.55;100724.72;5028724;28;20488;-51
2021/05/10 03:07:52;;;;;;;5.90;3.10;;;12.70;99.90;;;12.12;78.92;100723.00;5011388;28;20045;-53
2021/05/10 03:10:22;;;;;;;6.53;2.88;;;12.70;99.90;;;12.01;79.59;100717.97;5028080;28;20110;-54
2021/05/10 03:12:49;;;;;;;6.07;3.15;;;12.60;99.90;;;11.95;80.11;100714.16;5029100;28;20132;-53
2021/05/10 03:15:19;;;;;;;6.15;2.40;;;12.50;99.90;;;11.97;79.94;100716.63;5028788;28;20095;-49
2021/05/10 03:17:47;;;;;;;7.00;2.35;;;12.50;99.90;;;11.96;79.64;100720.22;5028499;28;20034;-55
2021/05/10 03:20:20;;;;;;;6.00;2.55;;;12.50;99.90;;;11.87;80.04;100724.50;5027825;28;20029;-52
2021/05/10 03:22:50;;;;;;;7.28;3.08;;;12.40;99.90;;;11.81;80.56;100730.34;5011508;28;20398;-53
2021/05/10 03:25:17;;;;;;;5.03;2.55;;;12.40;99.90;;;11.80;80.77;100725.28;5028129;28;20484;-52
2021/05/10 03:27:43;;;;;;;6.78;2.88;;;12.30;99.90;;;11.81;80.78;100732.97;5029352;28;20052;-52
2021/05/10 03:30:12;;;;;;;7.80;3.35;;;12.30;99.90;;;11.92;80.70;100729.31;5028267;28;20426;-53
2021/05/10 03:32:51;;;;;;;7.80;2.88;;;12.40;99.90;;;11.96;80.52;100733.25;5370819;22;20024;-52
2021/05/10 03:35:19;;;;;;;8.18;2.90;;;12.50;99.90;;;11.95;80.27;100729.00;4800777;22;20128;-49
2021/05/10 03:37:46;;;;;;;5.70;2.85;;;12.50;99.90;;;11.97;80.29;100729.69;5029117;28;20034;-49
2021/05/10 03:40:28;;;;;;;7.25;2.33;;;12.50;99.90;;;12.00;80.70;100737.22;5029170;28;20594;-49
2021/05/10 03:43:03;;;;;;;9.98;2.40;;;12.50;99.90;;;12.03;80.23;100736.09;5029316;28;20064;-51
2021/05/10 03:45:29;;;;;;;6.85;3.15;;;12.50;99.90;;;12.09;79.63;100736.34;5029286;28;20029;-50
2021/05/10 03:47:55;;;;;;;8.80;3.00;;;12.60;99.90;;;12.16;79.46;100732.19;5028979;28;20124;-50
2021/05/10 03:50:22;;;;;;;15.35;3.95;;;12.60;99.90;;;12.26;78.96;100738.16;5028889;28;20036;-50
2021/05/10 03:52:50;;;;;;;7.15;2.92;;;12.70;99.90;;;12.35;78.83;100746.06;5029399;28;20106;-56
2021/05/10 03:55:19;;;;;;;6.90;3.35;;;12.80;99.90;;;12.38;78.64;100740.53;5028920;28;20033;-49
2021/05/10 03:57:46;;;;;;;6.28;2.88;;;12.80;99.90;;;12.37;78.55;100747.53;5029018;28;20033;-50
2021/05/10 04:00:15;;;;;;;9.65;3.15;;;12.90;99.90;;;12.39;78.57;100744.78;5028837;28;20030;-47
2021/05/10 04:02:41;;;;;;;6.78;3.08;;;12.90;99.90;;;12.44;78.60;100745.16;5010883;28;20408;-50
2021/05/10 04:07:52;;;;;;;7.18;3.72;;;13.00;99.90;;;12.54;78.38;100743.28;5028968;28;20141;-50
2021/05/10 04:15:48;;;;;;;7.88;2.92;;;13.20;99.90;;;12.75;78.07;100749.03;5029083;28;20233;-50
2021/05/10 04:18:15;;;;;;;7.68;2.80;;;13.20;99.90;;;12.93;77.30;100751.59;5028651;28;20048;-50
2021/05/10 04:20:41;;;;;;;4.75;2.63;;;13.40;99.90;;;13.02;76.83;100749.88;5028531;28;20029;-52
2021/05/10 04:23:07;;;;;;;7.75;2.92;;;13.60;99.90;;;13.14;76.48;100748.66;5028274;28;20124;-49
2021/05/10 04:25:33;;;;;;;7.75;3.03;;;13.60;99.90;;;13.87;75.08;100749.00;5028462;28;20116;-52
2021/05/10 04:27:59;;;;;;;6.22;2.67;;;14.30;99.90;;;14.68;71.79;100746.53;5028591;28;20484;-49
2021/05/10 04:30:25;;;;;;;9.73;3.03;;;15.60;99.90;;;14.84;71.16;100745.72;5028415;28;20036;-48
2021/05/10 04:32:56;;;;;;;6.30;2.33;;;16.00;99.90;;;14.66;71.64;100743.25;5028384;28;20043;-52
2021/05/10 04:35:22;;;;;;;6.78;3.25;;;15.70;99.90;;;14.38;72.32;100744.53;5028230;28;20485;-50
2021/05/10 04:37:55;;;;;;;7.22;2.33;;;15.40;99.90;;;14.12;72.69;100740.25;5010507;28;20333;-51
2021/05/10 04:40:20;;;;;;;8.52;2.53;;;15.00;99.90;;;14.01;73.15;100743.16;5028759;28;20041;-50
2021/05/10 04:42:55;;;;;;;9.75;2.50;;;14.90;99.90;;;14.08;72.60;100749.41;5028444;28;20079;-49
2021/05/10 04:45:21;;;;;;;7.35;2.88;;;14.80;99.90;;;14.08;72.55;100738.94;5028273;28;20059;-52
2021/05/10 04:47:48;;;;;;;8.30;3.15;;;14.80;99.90;;;14.15;72.30;100750.41;5028188;28;20042;-54
2021/05/10 04:50:15;;;;;;;9.20;2.38;;;14.90;99.90;;;14.29;71.99;100756.78;5028492;28;20030;-52
2021/05/10 04:52:42;;;;;;;7.10;2.30;;;15.10;99.90;;;15.00;70.12;100760.63;5028176;28;20105;-54
2021/05/10 04:55:10;;;;;;;6.75;2.97;;;15.70;99.90;;;16.46;65.36;100760.03;5028372;28;20041;-54
2021/05/10 04:57:36;;;;;;;7.55;2.60;;;17.40;99.90;;;16.85;64.05;100763.34;5028246;28;20147;-52
2021/05/10 05:00:06;;;;;;;5.00;2.60;;;18.40;99.90;;;16.31;65.10;100761.75;5028542;28;20135;-54
2021/05/10 05:02:32;;;;;;;7.38;2.00;;;18.20;98.80;;;15.83;66.65;100761.06;5027946;28;20032;-50
2021/05/10 05:04:58;;;;;;;5.65;2.38;;;17.70;99.70;;;15.59;66.65;100765.44;5028037;28;20065;-55
2021/05/10 05:07:27;;;;;;;6.03;2.72;;;17.10;99.90;;;15.20;68.15;100764.50;5028444;28;20032;-52
2021/05/10 05:09:53;;;;;;;5.15;2.40;;;16.50;99.90;;;15.21;68.69;100755.66;5028052;28;20033;-51
2021/05/10 05:12:19;;;;;;;7.03;2.58;;;16.30;99.90;;;15.96;66.54;100750.81;5028013;28;20045;-53
2021/05/10 05:14:44;;;;;;;7.25;2.50;;;17.10;99.90;;;15.48;67.39;100757.06;5028300;28;20026;-53
2021/05/10 05:17:14;;;;;;;6.03;1.92;;;16.90;99.90;;;14.96;68.89;100759.31;5028066;28;20528;-55
2021/05/10 05:19:39;;;;;;;7.60;2.55;;;16.30;99.90;;;14.72;69.43;100747.84;5027856;28;20044;-51
2021/05/10 05:22:06;;;;;;;5.30;2.10;;;15.80;99.90;;;14.68;69.35;100751.78;5027897;28;20042;-53
2021/05/10 05:24:33;;;;;;;5.07;2.00;;;15.60;99.90;;;14.80;68.88;100744.41;5028069;28;20041;-54
2021/05/10 05:26:59;;;;;;;6.50;2.55;;;15.50;99.90;;;14.92;68.50;100754.41;5027932;28;20432;-50
2021/05/10 05:29:25;;;;;;;4.82;2.00;;;15.60;99.90;;;14.94;68.50;100747.19;5028101;28;20045;-49
2021/05/10 05:31:52;;;;;;;6.55;2.50;;;15.70;99.90;;;14.99;68.46;100758.97;5028248;28;20507;-51
2021/05/10 05:34:21;;;;;;;8.40;2.90;;;15.90;99.90;;;15.10;68.10;100753.41;5027490;28;20041;-51
2021/05/10 05:36:47;;;;;;;6.63;2.90;;;16.00;99.90;;;15.36;67.40;100758.41;5031802;28;20373;-54
2021/05/10 05:39:13;;;;;;;5.60;2.53;;;16.30;99.90;;;15.56;66.82;100760.50;5031788;28;20029;-56
2021/05/10 05:41:39;;;;;;;6.30;3.10;;;16.50;99.90;;;15.67;66.56;100761.13;5031784;28;20032;-53
2021/05/10 05:44:18;;;;;;;7.70;2.97;;;16.70;99.90;;;16.48;63.74;100773.81;5031632;28;20120;-51
2021/05/10 05:46:48;;;;;;;6.00;2.17;;;17.50;99.90;;;17.65;61.30;100781.13;5029351;28;20096;-53
2021/05/10 05:49:15;;;;;;;4.35;1.70;;;19.20;98.30;;;18.29;59.39;100781.28;5031695;28;20037;-53
2021/05/10 05:51:44;;;;;;;7.30;1.83;;;20.40;93.20;;;18.68;58.26;100786.16;5031638;28;20057;-50
2021/05/10 05:54:09;;;;;;;4.95;1.60;;;20.70;90.90;;;18.70;57.69;100789.41;5031318;28;20473;-52
2021/05/10 05:56:35;;;;;;;7.88;1.98;;;20.90;87.40;;;19.15;56.70;100796.06;5031332;28;20048;-53
2021/05/10 05:59:03;;;;;;;4.32;1.75;;;21.30;84.90;;;19.13;56.01;100792.00;5031335;28;20041;-51
2021/05/10 06:01:29;;;;;;;6.22;1.40;;;21.50;79.30;;;19.19;56.47;100799.16;5013453;28;20041;-56
2021/05/10 06:03:55;;;;;;;4.53;1.98;;;21.50;81.30;;;20.15;54.02;100805.34;5031067;28;20087;-56
2021/05/10 06:06:20;;;;;;;6.07;1.70;;;22.40;76.50;;;20.24;53.78;100809.47;5031361;28;20026;-57
2021/05/10 06:08:47;;;;;;;5.80;1.83;;;23.20;73.50;;;21.05;51.80;100812.00;5030981;28;20049;-55
2021/05/10 06:11:13;;;;;;;8.13;1.73;;;24.00;69.80;;;21.38;50.97;100820.75;5030889;28;20072;-57
2021/05/10 06:13:39;;;;;;;4.57;1.52;;;24.10;67.70;;;21.06;51.23;100817.13;5031197;28;20037;-55
2021/05/10 06:16:06;;;;;;;7.10;1.80;;;23.80;67.70;;;21.19;50.67;100822.41;5012734;28;20465;-56
2021/05/10 06:18:32;;;;;;;5.50;1.67;;;23.90;66.80;;;21.17;50.81;100816.50;5031120;28;20115;-54
2021/05/10 06:21:05;;;;;;;7.35;1.30;;;23.90;66.00;;;20.56;51.73;100822.97;5030758;28;20400;-57
2021/05/10 06:23:32;;;;;;;4.93;1.80;;;23.70;66.00;;;20.87;51.59;100831.97;5030889;28;20131;-57
2021/05/10 06:25:58;;;;;;;8.07;2.58;;;23.60;67.00;;;21.00;51.28;100835.66;5030803;28;20032;-55
2021/05/10 06:28:24;;;;;;;7.50;2.63;;;23.60;67.00;;;21.07;51.04;100836.47;5030861;28;20030;-53
2021/05/10 06:30:50;;;;;;;7.93;2.80;;;23.80;66.40;;;21.31;50.53;100832.38;5030489;28;20044;-50
2021/05/10 06:33:16;;;;;;;8.25;2.15;;;24.30;64.40;;;21.77;49.46;100832.28;5030636;28;20465;-52
2021/05/10 06:35:42;;;;;;;5.70;1.63;;;24.70;63.50;;;22.52;47.58;100833.41;5030273;28;20065;-57
2021/05/10 06:38:13;;;;;;;4.78;2.30;;;25.70;60.70;;;23.23;46.57;100830.41;5030536;28;20037;-56
2021/05/10 06:40:39;;;;;;;6.47;1.90;;;26.50;59.00;;;22.96;47.23;100834.34;5030406;28;20112;-55
2021/05/10 06:43:05;;;;;;;4.43;1.88;;;26.90;57.50;;;23.08;46.22;100832.63;5030352;28;20037;-56
2021/05/10 06:45:31;;;;;;;8.32;1.98;;;26.80;57.10;;;23.49;45.64;100832.81;5030017;28;20465;-56
2021/05/10 06:47:57;;;;;;;6.65;2.70;;;27.10;56.30;;;24.04;44.05;100838.16;5030438;28;20381;-55
2021/05/10 06:50:23;;;;;;;4.65;1.80;;;28.10;54.40;;;24.73;43.49;100844.78;5030142;28;20072;-55
2021/05/10 06:52:48;;;;;;;7.63;1.60;;;29.00;52.70;;;24.76;43.13;100840.88;5030085;28;20132;-55
2021/05/10 06:55:14;;;;;;;4.30;1.75;;;29.80;50.50;;;24.98;42.82;100841.97;5030121;28;20056;-55
2021/05/10 06:57:40;;;;;;;6.45;1.67;;;29.90;50.40;;;25.32;41.89;100842.22;5029894;28;20041;-55
2021/05/10 07:00:07;;;;;;;6.40;1.98;;;30.20;49.80;;;25.68;40.45;100836.63;5029852;28;20133;-53
2021/05/10 07:02:33;;;;;;;5.72;1.52;;;30.30;48.90;;;25.84;39.85;100840.44;5030101;28;20040;-51
2021/05/10 07:04:59;;;;;;;3.80;1.45;;;30.40;48.20;;;25.69;40.10;100840.91;5012256;28;20038;-52
2021/05/10 07:07:24;;;;;;;3.35;1.52;;;30.30;47.90;;;25.04;40.95;100841.06;5009581;28;20137;-51
2021/05/10 07:09:50;;;;;;;5.60;1.75;;;29.70;48.30;;;25.35;40.42;100841.75;5009499;28;20478;-53
2021/05/10 07:12:16;;;;;;;11.43;2.60;;;29.50;48.70;;;24.59;41.07;100842.53;5006267;28;20053;-52
2021/05/10 07:14:42;;;;;;;6.35;1.48;;;29.40;47.70;;;25.52;38.97;100842.66;5010077;28;20034;-52
2021/05/10 07:17:08;;;;;;;5.50;1.35;;;29.70;47.70;;;25.43;38.58;100844.06;5008528;28;20042;-52
2021/05/10 07:19:35;;;;;;;4.47;1.30;;;29.40;46.80;;;25.37;38.36;100840.47;5009386;28;20167;-54
2021/05/10 07:22:01;;;;;;;5.90;0.98;;;28.60;48.10;;;25.50;37.74;100838.63;4985787;28;20030;-52
2021/05/10 07:24:27;;;;;;;7.07;1.67;;;27.70;49.50;;;24.78;39.15;100841.44;5008879;28;20077;-52
2021/05/10 07:26:55;;;;;;;3.35;1.00;;;26.60;51.80;;;23.49;42.11;100843.47;5009155;28;20048;-49
2021/05/10 07:29:21;;;;;;;4.03;1.17;;;25.30;54.20;;;22.71;42.52;100839.59;5008236;28;20034;-56
2021/05/10 07:31:47;;;;;;;3.17;0.95;;;24.20;55.70;;;22.41;43.10;100840.19;5010090;28;20034;-53
2021/05/10 07:34:15;;;;;;;2.13;0.30;;;23.60;56.70;;;22.20;42.19;100842.38;5009733;28;20050;-55
2021/05/10 07:36:41;;;;;;;2.10;0.30;;;23.20;56.20;;;22.31;41.34;100836.38;5008974;28;20041;-53
2021/05/10 07:39:07;;;;;;;3.80;0.30;;;23.00;55.70;;;22.33;40.48;100823.72;4998646;28;20132;-50
2021/05/10 07:41:33;;;;;;;1.52;0.22;;;23.00;54.80;;;22.23;41.00;100831.31;5010391;28;20040;-52
2021/05/10 07:43:59;;;;;;;2.90;0.30;;;22.90;55.50;;;22.48;40.01;100829.56;5008500;28;20033;-49
2021/05/10 07:46:25;;;;;;;1.10;0.30;;;23.00;55.30;;;22.35;40.18;100825.13;5009331;28;20477;-49
2021/05/10 07:48:51;;;;;;;1.70;0.20;;;22.90;55.50;;;22.68;40.02;100824.94;5009448;28;20129;-54
2021/05/10 07:51:17;;;;;;;9.75;0.30;;;23.10;55.50;;;23.17;39.52;100815.34;5009384;28;20030;-50
2021/05/10 07:53:43;;;;;;;3.20;0.30;;;23.60;55.70;;;22.87;39.73;100819.69;5008089;28;20040;-52
2021/05/10 07:56:12;;;;;;;1.70;0.30;;;23.70;54.90;;;22.81;40.12;100824.84;5009523;28;20050;-50
2021/05/10 07:58:41;;;;;;;5.05;0.55;;;23.40;55.50;;;22.92;40.12;100815.38;5008790;28;20493;-51
2021/05/10 08:01:08;;;;;;;1.88;0.20;;;23.30;56.00;;;22.80;40.70;100817.09;5009550;28;20037;-54
2021/05/10 08:03:34;;;;;;;1.80;0.25;;;23.20;56.40;;;22.94;40.27;100818.63;5009478;28;20041;-51
2021/05/10 08:06:01;;;;;;;3.97;0.30;;;23.40;56.30;;;22.90;40.31;100805.97;4992161;28;20129;-53
2021/05/10 08:08:27;;;;;;;1.48;0.32;;;23.40;56.00;;;22.75;40.13;100809.72;4989239;28;20780;-56
2021/05/10 08:10:54;;;;;;;4.20;0.30;;;23.30;55.50;;;22.66;39.59;100802.28;4989285;28;20039;-55
2021/05/10 08:13:20;;;;;;;1.13;0.30;;;23.20;54.60;;;22.70;39.10;100806.91;4994979;28;20030;-52
2021/05/10 08:15:47;;;;;;;2.70;0.40;;;23.20;54.80;;;23.13;38.37;100807.00;5007540;28;20128;-49
2021/05/10 08:18:13;;;;;;;1.83;0.13;;;23.40;54.40;;;23.56;37.71;100805.38;5009103;28;20042;-52
2021/05/10 08:20:44;;;;;;;2.22;0.40;;;23.60;54.80;;;23.97;37.89;100804.69;5009095;28;20161;-53
2021/05/10 08:23:12;;;;;;;1.33;0.20;;;24.00;54.60;;;23.77;37.67;100804.91;5007747;28;20409;-53
2021/05/10 08:25:39;;;;;;;0.50;0.15;;;24.10;53.20;;;23.87;35.68;100807.06;5008749;28;20057;-54
2021/05/10 08:28:06;;;;;;;4.07;0.40;;;24.10;51.90;;;23.67;36.65;100809.94;5009274;28;20038;-53
2021/05/10 08:30:32;;;;;;;3.13;0.30;;;24.10;52.00;;;24.05;36.37;100807.84;5008613;28;20125;-51
2021/05/10 08:32:58;;;;;;;1.67;0.20;;;24.20;52.80;;;24.47;35.71;100805.25;5008408;28;20034;-54
2021/05/10 08:35:25;;;;;;;0.55;0.10;;;24.50;52.50;;;24.79;33.78;100801.25;5005350;28;20068;-57
2021/05/10 08:37:52;;;;;;;1.33;0.10;;;25.00;50.30;;;24.76;33.33;100807.03;5003260;28;20536;-52
2021/05/10 08:40:18;;;;;;;2.65;0.20;;;25.00;49.40;;;24.43;34.07;100815.53;5007868;28;20493;-54
2021/05/10 08:42:44;;;;;;;2.25;0.10;;;24.90;49.50;;;24.31;33.56;100813.88;5008357;28;20709;-54
2021/05/10 08:45:18;;;;;;;2.83;0.20;;;24.70;48.80;;;24.44;31.89;100808.38;5007838;28;20100;-54
2021/05/10 08:47:44;;;;;;;1.55;0.10;;;24.70;48.80;;;24.53;32.10;100800.88;5006972;28;20033;-49
2021/05/10 08:50:12;;;;;;;0.65;0.10;;;24.90;47.00;;;25.00;30.79;100802.59;4990365;28;20044;-57
2021/05/10 08:52:38;;;;;;;2.55;0.10;;;25.10;47.20;;;25.03;30.42;100798.66;5008105;28;20045;-52
2021/05/10 08:55:05;;;;;;;0.50;0.08;;;25.30;46.40;;;25.20;30.71;100802.22;4974358;28;20161;-53
2021/05/10 08:57:31;;;;;;;1.40;0.20;;;25.50;46.50;;;25.32;30.47;100799.56;5008291;28;20037;-56
2021/05/10 08:59:57;;;;;;;0.30;0.10;;;25.60;46.50;;;25.07;30.25;100799.78;5004318;28;20033;-54
2021/05/10 09:02:32;;;;;;;1.33;0.10;;;25.50;45.80;;;25.35;29.27;100797.22;5005015;28;20129;-50
2021/05/10 09:05:19;;;;;;;1.08;0.10;;;25.70;44.70;;;25.25;28.40;100810.34;4998837;28;20339;-53
2021/05/10 09:08:05;;;;;;;2.95;0.10;;;25.70;44.00;;;24.72;26.67;100800.53;5002032;28;20136;-56
2021/05/10 09:10:31;;;;;;;0.70;0.10;;;25.30;43.00;;;25.11;29.27;100798.28;4992888;28;20100;-54
2021/05/10 09:12:57;;;;;;;0.68;0.00;;;25.30;44.80;;;25.33;28.35;100795.84;5004075;28;20037;-55
2021/05/10 09:15:28;;;;;;;2.17;0.10;;;25.60;44.10;;;25.81;27.12;100802.72;5011801;28;20092;-47
2021/05/10 09:18:00;;;;;;;3.45;0.10;;;25.90;43.60;;;25.88;27.40;100803.41;5010050;28;20112;-47
2021/05/10 09:20:33;;;;;;;2.97;0.10;;;26.20;42.80;;;25.68;27.37;100803.81;4992539;28;20100;-52
2021/05/10 09:23:12;;;;;;;1.98;0.10;;;26.20;42.80;;;25.62;27.78;100794.84;4992464;28;20068;-51
2021/05/10 09:25:43;;;;;;;3.30;0.10;;;26.10;42.90;;;26.01;27.29;100798.56;4992786;28;20046;-49
2021/05/10 09:28:18;;;;;;;1.65;0.10;;;26.30;42.80;;;25.98;27.06;100800.94;4993500;28;20089;-53
2021/05/10 09:30:55;;;;;;;0.52;0.10;;;26.40;43.00;;;25.21;27.28;100803.84;5000845;28;20042;-51
2021/05/10 09:33:24;;;;;;;0.73;0.10;;;26.00;42.60;;;25.93;27.31;100806.19;5004288;28;20038;-55
2021/05/10 09:35:52;;;;;;;1.20;0.10;;;26.10;42.80;;;26.31;27.16;100792.22;5009401;28;20421;-55
2021/05/10 09:38:20;;;;;;;0.95;0.10;;;26.40;42.70;;;26.26;26.43;100794.78;5011328;28;20029;-50
2021/05/10 09:40:55;;;;;;;0.25;0.10;;;26.60;41.50;;;25.37;27.03;100784.47;5010883;28;20393;-50
2021/05/10 09:43:35;;;;;;;0.60;0.03;;;26.10;41.40;;;25.52;27.19;100785.84;5010422;28;20153;-50
2021/05/10 09:46:19;;;;;;;0.40;0.10;;;26.00;42.30;;;25.90;26.61;100796.78;5010703;28;20107;-54
2021/05/10 09:48:46;;;;;;;0.80;0.10;;;26.30;41.50;;;25.85;27.12;100790.53;4992971;28;20709;-50
2021/05/10 09:51:15;;;;;;;1.88;0.10;;;26.40;42.00;;;25.70;27.41;100791.03;5009716;28;20049;-51
2021/05/10 09:53:55;;;;;;;1.48;0.10;;;26.20;42.20;;;25.53;27.53;100785.59;5012181;28;20624;-49
2021/05/10 09:58:54;;;;;;;1.08;0.10;;;25.60;42.00;;;25.72;28.14;100778.28;5010659;28;20050;-49
2021/05/10 10:01:21;;;;;;;1.17;0.00;;;25.80;43.50;;;25.65;27.54;100782.94;5010276;28;20065;-51
2021/05/10 10:03:59;;;;;;;0.40;0.08;;;26.00;42.90;;;25.61;27.52;100784.41;5008136;28;20041;-53
2021/05/10 10:06:28;;;;;;;1.17;0.10;;;25.90;42.80;;;25.30;27.78;100767.78;4985065;28;20489;-48
2021/05/10 10:08:54;;;;;;;1.55;0.10;;;25.80;41.80;;;25.57;27.87;100772.59;5009461;28;20109;-50
2021/05/10 10:11:22;;;;;;;1.23;0.10;;;25.70;43.10;;;25.38;27.60;100767.44;5010646;28;20042;-50
2021/05/10 10:13:51;;;;;;;0.82;0.10;;;25.90;42.50;;;24.67;29.15;100767.63;5007353;28;20355;-49
2021/05/10 10:16:20;;;;;;;2.22;0.10;;;25.40;43.10;;;25.32;28.90;100765.69;5009713;28;20041;-50
2021/05/10 10:18:47;;;;;;;0.45;0.10;;;25.50;44.00;;;25.69;28.50;100768.06;5009405;28;20113;-52
2021/05/10 10:21:17;;;;;;;0.70;0.10;;;25.80;43.30;;;25.46;28.42;100767.06;5008892;28;20048;-54
2021/05/10 10:23:58;;;;;;;7.50;0.10;;;25.90;43.30;;;25.57;28.29;100767.25;5010658;28;20029;-51
2021/05/10 10:26:26;;;;;;;1.50;0.10;;;25.90;43.30;;;25.79;28.39;100768.28;5009264;28;20069;-55
2021/05/10 10:28:53;;;;;;;1.60;0.15;;;26.00;43.60;;;25.70;28.31;100756.34;5010160;28;20042;-51